Terminal Aerodrome Forecast
Issued by NWS Bismarck, ND

Home | Current Version | Previous Version | Text Only | Print | Product List | Glossary Off
Versions: 1 2 3 4 5 6 7 8 9 10 11 12 13 14 15 16 17 18 19 20 21

000
FTUS43 KBIS 301500 AAA
TAFBIS
TAF AMD
KBIS 301510Z 3015/0112 10017G22KT P6SM VCSH OVC011
     FM302100 11016G24KT P6SM -SHRA VCTS BKN012 OVC025CB
     FM010100 VRB05KT 3SM -SHRA BKN008 OVC012
     FM010600 27014G20KT 3SM -SHRA BKN008 OVC013=

USA.gov is the U.S. government's official web portal to all federal, state and local government web resources and services.